Terminal Aerodrome Forecast
Issued by NWS Albany, NY

Home | Current Version | Previous Version | Text Only | Print | Product List | Glossary On
Versions: 1 2 3 4 5 6 7 8 9 10 11 12 13 14 15 16
000
FTUS41 KALY 301120
TAFGFL
TAF
KGFL 301120Z 3012/3112 19004KT P6SM SCT070 BKN250
     FM301400 19007KT P6SM VCSH BKN050
     FM301600 20007KT 3SM SHRA BR VCTS SCT015 OVC045CB
     FM301900 23005KT P6SM BKN045
     FM310000 VRB03KT P6SM FEW045
     FM310800 VRB02KT 2SM BR SCT004=

USA.gov is the U.S. government's official web portal to all federal, state and local government web resources and services.